Time;durP1;ratioP1;P1;durP2;ratioP2;P2;SDS_P1;SDS_P2;PMS_P1;PMS_P2;Temp;Humidity;BMP_temperature;BMP_pressure;BME280_temperature;BME280_humidity;BME280_pressure;Samples;Min_cycle;Max_cycle;Signal;HPM_P1;HPM_P2
2022/12/07 00:00:41;;;;;;;;;;;;;;;;;;2079851;28;19936;-90
2022/12/07 00:01:42;;;;;;;;;;;;;;;;;;2079902;28;19925;-89
2022/12/07 00:02:42;;;;;;;;;;;;;;;;;;2079834;28;19913;-89
2022/12/07 00:03:43;;;;;;;;;;;;;;;;;;2079867;28;19913;-89
2022/12/07 00:04:44;;;;;;;;;;;;;;;;;;2079687;28;19920;-90
2022/12/07 00:05:44;;;;;;;;;;;;;;;;;;2071762;28;19945;-90
2022/12/07 00:06:45;;;;;;;;;;;;;;;;;;2071549;28;19921;-90
2022/12/07 00:07:46;;;;;;;;;;;;;;;;;;2071866;28;20271;-90
2022/12/07 00:08:46;;;;;;;;;;;;;;;;;;2079972;28;19913;-90
2022/12/07 00:09:46;;;;;;;;;;;;;;;;;;2088006;28;19927;-91
2022/12/07 00:10:47;;;;;;;;;;;;;;;;;;2079679;28;19971;-90
2022/12/07 00:11:50;;;;;;;;;;;;;;;;;;2079888;28;20411;-90
2022/12/07 00:12:51;;;;;;;;;;;;;;;;;;2087637;28;20000;-90
2022/12/07 00:13:55;;;;;;;;;;;;;;;;;;2079971;28;19912;-91
2022/12/07 00:14:55;;;;;;;;;;;;;;;;;;2079693;28;19913;-91
2022/12/07 00:15:56;;;;;;;;;;;;;;;;;;2072009;28;20327;-89
2022/12/07 00:16:56;;;;;;;;;;;;;;;;;;2071618;28;19997;-90
2022/12/07 00:17:56;;;;;;;;;;;;;;;;;;2071612;28;19920;-90
2022/12/07 00:18:57;;;;;;;;;;;;;;;;;;2071545;28;19957;-90
2022/12/07 00:19:57;;;;;;;;;;;;;;;;;;2071734;28;20549;-91
2022/12/07 00:21:01;;;;;;;;;;;;;;;;;;2080332;28;19917;-91
2022/12/07 00:22:01;;;;;;;;;;;;;;;;;;2080510;28;20400;-90
2022/12/07 00:23:01;;;;;;;;;;;;;;;;;;2080037;28;19913;-90
2022/12/07 00:24:03;;;;;;;;;;;;;;;;;;2071772;28;19917;-91
2022/12/07 00:25:03;;;;;;;;;;;;;;;;;;2071035;28;20249;-91
2022/12/07 00:26:05;;;;;;;;;;;;;;;;;;2071778;28;19913;-90
2022/12/07 00:27:05;;;;;;;;;;;;;;;;;;2071581;28;20672;-90
2022/12/07 00:28:06;;;;;;;;;;;;;;;;;;2071700;28;19928;-90
2022/12/07 00:29:11;;;;;;;;;;;;;;;;;;2079882;28;19970;-90
2022/12/07 00:30:11;;;;;;;;;;;;;;;;;;2080455;28;20012;-91
2022/12/07 00:31:12;;;;;;;;;;;;;;;;;;2087929;28;19916;-90
2022/12/07 00:32:13;;;;;;;;;;;;;;;;;;2089076;28;19928;-90
2022/12/07 00:33:13;;;;;;;;;;;;;;;;;;2079861;28;20010;-90
2022/12/07 00:34:15;;;;;;;;;;;;;;;;;;2071625;28;19924;-90
2022/12/07 00:35:15;;;;;;;;;;;;;;;;;;2071671;28;19925;-88
2022/12/07 00:36:17;;;;;;;;;;;;;;;;;;2079833;28;19994;-87
2022/12/07 00:37:17;;;;;;;;;;;;;;;;;;2080321;28;19959;-89
2022/12/07 00:38:17;;;;;;;;;;;;;;;;;;2079753;28;19967;-90
2022/12/07 00:39:17;;;;;;;;;;;;;;;;;;2079803;28;19917;-90
2022/12/07 00:40:18;;;;;;;;;;;;;;;;;;2071823;28;19921;-91
2022/12/07 00:41:20;;;;;;;;;;;;;;;;;;2071476;28;19960;-90
2022/12/07 00:42:20;;;;;;;;;;;;;;;;;;2079788;28;20368;-90
2022/12/07 00:43:20;;;;;;;;;;;;;;;;;;2087949;28;19913;-91
2022/12/07 00:44:20;;;;;;;;;;;;;;;;;;2079576;28;20438;-90
2022/12/07 00:45:21;;;;;;;;;;;;;;;;;;2079613;28;19913;-91
2022/12/07 00:46:21;;;;;;;;;;;;;;;;;;2079635;28;19913;-90
2022/12/07 00:47:22;;;;;;;;;;;;;;;;;;2071665;28;20361;-91
2022/12/07 00:48:22;;;;;;;;;;;;;;;;;;2071408;28;19932;-89
2022/12/07 00:49:22;;;;;;;;;;;;;;;;;;2079689;28;20015;-88
2022/12/07 00:50:23;;;;;;;;;;;;;;;;;;2087776;28;19956;-89
2022/12/07 00:51:24;;;;;;;;;;;;;;;;;;2079550;28;19936;-90
2022/12/07 00:52:25;;;;;;;;;;;;;;;;;;2079933;28;19932;-89
2022/12/07 00:53:25;;;;;;;;;;;;;;;;;;2079584;28;19917;-90
2022/12/07 00:54:25;;;;;;;;;;;;;;;;;;2079637;28;19974;-88
2022/12/07 00:55:25;;;;;;;;;;;;;;;;;;2087723;28;19913;-90
2022/12/07 00:56:27;;;;;;;;;;;;;;;;;;2079752;28;19975;-90
2022/12/07 00:57:27;;;;;;;;;;;;;;;;;;2071356;28;19917;-90
2022/12/07 00:58:28;;;;;;;;;;;;;;;;;;2079603;28;19921;-91
2022/12/07 00:59:28;;;;;;;;;;;;;;;;;;2092321;28;19970;-90
2022/12/07 01:00:28;;;;;;;;;;;;;;;;;;2098170;28;19956;-90
2022/12/07 01:01:33;;;;;;;;;;;;;;;;;;2090370;28;19959;-90
2022/12/07 01:02:33;;;;;;;;;;;;;;;;;;2086995;28;20024;-90
2022/12/07 01:03:34;;;;;;;;;;;;;;;;;;2093937;28;19931;-90
2022/12/07 01:04:34;;;;;;;;;;;;;;;;;;2091215;28;20012;-90
2022/12/07 01:05:34;;;;;;;;;;;;;;;;;;2088993;28;19913;-90
2022/12/07 01:06:35;;;;;;;;;;;;;;;;;;2079915;28;20012;-90
2022/12/07 01:07:35;;;;;;;;;;;;;;;;;;2071591;28;20404;-91
2022/12/07 01:08:35;;;;;;;;;;;;;;;;;;2079558;28;20011;-90
2022/12/07 01:09:36;;;;;;;;;;;;;;;;;;2079938;28;19960;-90
2022/12/07 01:10:36;;;;;;;;;;;;;;;;;;2087860;28;19912;-90
2022/12/07 01:11:36;;;;;;;;;;;;;;;;;;2088376;28;19919;-89
2022/12/07 01:12:36;;;;;;;;;;;;;;;;;;2088005;28;19913;-90
2022/12/07 01:13:37;;;;;;;;;;;;;;;;;;2087877;28;19963;-90
2022/12/07 01:14:37;;;;;;;;;;;;;;;;;;2089039;28;19939;-90
2022/12/07 01:15:43;;;;;;;;;;;;;;;;;;2089982;28;19959;-90
2022/12/07 01:16:44;;;;;;;;;;;;;;;;;;2090531;28;20394;-90
2022/12/07 01:17:44;;;;;;;;;;;;;;;;;;2090598;28;19913;-90
2022/12/07 01:18:51;;;;;;;;;;;;;;;;;;2087003;28;20213;-89
2022/12/07 01:19:51;;;;;;;;;;;;;;;;;;2082451;28;19913;-89
2022/12/07 01:21:08;;;;;;;;;;;;;;;;;;2090326;28;19965;-89
2022/12/07 01:22:09;;;;;;;;;;;;;;;;;;2098510;28;20000;-89
2022/12/07 01:23:09;;;;;;;;;;;;;;;;;;2094716;28;19978;-89
2022/12/07 01:24:10;;;;;;;;;;;;;;;;;;2082766;28;19913;-90
2022/12/07 01:25:11;;;;;;;;;;;;;;;;;;2080729;28;20261;-90
2022/12/07 01:26:14;;;;;;;;;;;;;;;;;;2096517;28;20351;-89
2022/12/07 01:27:15;;;;;;;;;;;;;;;;;;2095952;28;19912;-90
2022/12/07 01:28:15;;;;;;;;;;;;;;;;;;2096048;28;19947;-90
2022/12/07 01:29:15;;;;;;;;;;;;;;;;;;2087913;28;20347;-90
2022/12/07 01:30:16;;;;;;;;;;;;;;;;;;2079559;28;20224;-89
2022/12/07 01:31:17;;;;;;;;;;;;;;;;;;2079472;28;19917;-87
2022/12/07 01:32:18;;;;;;;;;;;;;;;;;;2079201;28;19921;-88
2022/12/07 01:33:18;;;;;;;;;;;;;;;;;;2071436;28;20583;-89
2022/12/07 01:34:18;;;;;;;;;;;;;;;;;;2079265;28;19913;-89
2022/12/07 01:35:18;;;;;;;;;;;;;;;;;;2079427;28;20095;-89
2022/12/07 01:36:21;;;;;;;;;;;;;;;;;;2079978;28;19984;-90
2022/12/07 01:37:21;;;;;;;;;;;;;;;;;;2066626;28;19928;-90
2022/12/07 01:38:21;;;;;;;;;;;;;;;;;;2081423;28;19920;-89
2022/12/07 01:39:22;;;;;;;;;;;;;;;;;;2090212;28;20004;-90
2022/12/07 01:40:22;;;;;;;;;;;;;;;;;;2081022;28;19936;-90
2022/12/07 01:41:23;;;;;;;;;;;;;;;;;;2073138;28;19917;-89
2022/12/07 01:42:23;;;;;;;;;;;;;;;;;;2072932;28;19977;-89
2022/12/07 01:43:25;;;;;;;;;;;;;;;;;;2081097;28;19964;-89
2022/12/07 01:44:26;;;;;;;;;;;;;;;;;;2090068;28;19994;-90
2022/12/07 01:45:40;;;;;;;;;;;;;;;;;;2089309;28;20418;-90
2022/12/07 01:46:41;;;;;;;;;;;;;;;;;;2089035;28;20305;-90
2022/12/07 01:47:43;;;;;;;;;;;;;;;;;;2081285;28;20003;-89
2022/12/07 01:48:43;;;;;;;;;;;;;;;;;;2073059;28;19920;-89
2022/12/07 01:49:48;;;;;;;;;;;;;;;;;;2072724;28;19929;-89
2022/12/07 01:50:50;;;;;;;;;;;;;;;;;;2081084;28;19924;-89
2022/12/07 01:51:51;;;;;;;;;;;;;;;;;;2081423;28;19999;-89
2022/12/07 01:52:53;;;;;;;;;;;;;;;;;;2081206;28;20049;-89
2022/12/07 01:53:53;;;;;;;;;;;;;;;;;;2081538;28;20307;-90
2022/12/07 01:54:56;;;;;;;;;;;;;;;;;;2089584;28;19920;-90
2022/12/07 01:55:58;;;;;;;;;;;;;;;;;;2089429;28;19917;-90
2022/12/07 01:56:59;;;;;;;;;;;;;;;;;;2081253;28;19947;-89
2022/12/07 01:57:59;;;;;;;;;;;;;;;;;;2080953;28;20438;-89
2022/12/07 01:59:00;;;;;;;;;;;;;;;;;;2081039;28;19925;-90
2022/12/07 02:00:00;;;;;;;;;;;;;;;;;;2081186;28;19913;-90
2022/12/07 02:01:01;;;;;;;;;;;;;;;;;;2089450;28;19919;-89
2022/12/07 02:02:02;;;;;;;;;;;;;;;;;;2089435;28;19995;-91
2022/12/07 02:03:02;;;;;;;;;;;;;;;;;;2097554;28;20047;-91
2022/12/07 02:04:02;;;;;;;;;;;;;;;;;;2089299;28;19912;-91
2022/12/07 02:05:04;;;;;;;;;;;;;;;;;;2081247;28;19920;-91
2022/12/07 02:06:05;;;;;;;;;;;;;;;;;;2081152;28;19956;-90
2022/12/07 02:07:06;;;;;;;;;;;;;;;;;;2081261;28;19913;-91
2022/12/07 02:08:07;;;;;;;;;;;;;;;;;;2080918;28;19979;-91
2022/12/07 02:09:07;;;;;;;;;;;;;;;;;;2090084;28;19919;-90
2022/12/07 02:10:14;;;;;;;;;;;;;;;;;;2080883;28;19975;-91
2022/12/07 02:11:15;;;;;;;;;;;;;;;;;;2073542;28;20008;-91
2022/12/07 02:12:15;;;;;;;;;;;;;;;;;;2072857;28;19914;-90
2022/12/07 02:13:20;;;;;;;;;;;;;;;;;;2072872;28;20008;-89
2022/12/07 02:14:21;;;;;;;;;;;;;;;;;;2081699;28;19913;-91
2022/12/07 02:15:23;;;;;;;;;;;;;;;;;;2089198;28;19952;-91
2022/12/07 02:16:29;;;;;;;;;;;;;;;;;;2089258;28;20083;-91
2022/12/07 02:17:35;;;;;;;;;;;;;;;;;;2090015;28;19966;-91
2022/12/07 02:18:47;;;;;;;;;;;;;;;;;;2090019;28;19913;-91
2022/12/07 02:20:02;;;;;;;;;;;;;;;;;;2090078;28;19935;-91
2022/12/07 02:21:21;;;;;;;;;;;;;;;;;;2080793;28;20380;-89
2022/12/07 02:22:41;;;;;;;;;;;;;;;;;;2084008;28;19913;-89
2022/12/07 02:24:00;;;;;;;;;;;;;;;;;;2088755;28;19912;-90
2022/12/07 02:25:06;;;;;;;;;;;;;;;;;;2082482;28;20361;-91
2022/12/07 02:26:21;;;;;;;;;;;;;;;;;;2081586;28;19912;-90
2022/12/07 02:27:40;;;;;;;;;;;;;;;;;;2089324;28;19913;-90
2022/12/07 02:28:46;;;;;;;;;;;;;;;;;;2080920;28;19913;-91
2022/12/07 02:29:58;;;;;;;;;;;;;;;;;;2081548;28;19913;-91
2022/12/07 02:31:03;;;;;;;;;;;;;;;;;;2080810;28;19918;-92
2022/12/07 02:32:11;;;;;;;;;;;;;;;;;;2081289;28;20466;-91
2022/12/07 02:33:14;;;;;;;;;;;;;;;;;;2080846;28;20055;-91
2022/12/07 02:34:40;;;;;;;;;;;;;;;;;;2072963;28;19917;-91
2022/12/07 02:35:41;;;;;;;;;;;;;;;;;;2073490;28;20459;-91
2022/12/07 02:36:45;;;;;;;;;;;;;;;;;;2081331;28;20023;-93
2022/12/07 02:37:45;;;;;;;;;;;;;;;;;;2081765;28;20020;-93
2022/12/07 02:38:54;;;;;;;;;;;;;;;;;;2081434;28;20295;-93
2022/12/07 02:39:57;;;;;;;;;;;;;;;;;;2089572;28;20011;-94
2022/12/07 02:41:00;;;;;;;;;;;;;;;;;;2090003;28;19913;-94
2022/12/07 02:42:04;;;;;;;;;;;;;;;;;;2081222;28;19920;-92
2022/12/07 02:43:17;;;;;;;;;;;;;;;;;;2081359;28;19924;-91
2022/12/07 02:44:18;;;;;;;;;;;;;;;;;;2080985;28;20006;-92
2022/12/07 02:45:20;;;;;;;;;;;;;;;;;;2072950;28;19920;-93
2022/12/07 02:46:23;;;;;;;;;;;;;;;;;;2073407;28;19949;-92
2022/12/07 02:47:24;;;;;;;;;;;;;;;;;;2072876;28;19914;-92
2022/12/07 02:48:25;;;;;;;;;;;;;;;;;;2072283;28;20388;-91
2022/12/07 02:49:27;;;;;;;;;;;;;;;;;;2073088;28;19913;-93
2022/12/07 02:50:28;;;;;;;;;;;;;;;;;;2081201;28;19968;-93
2022/12/07 02:51:32;;;;;;;;;;;;;;;;;;2089594;28;20371;-91
2022/12/07 02:52:32;;;;;;;;;;;;;;;;;;2081043;28;19921;-92
2022/12/07 02:53:34;;;;;;;;;;;;;;;;;;2073261;28;19914;-91
2022/12/07 02:54:34;;;;;;;;;;;;;;;;;;2072698;28;20395;-91
2022/12/07 02:55:39;;;;;;;;;;;;;;;;;;2072623;28;19921;-90
2022/12/07 02:56:48;;;;;;;;;;;;;;;;;;2073155;28;20302;-90
2022/12/07 02:58:06;;;;;;;;;;;;;;;;;;2082308;28;20015;-91
2022/12/07 02:59:24;;;;;;;;;;;;;;;;;;2089168;28;19920;-91
2022/12/07 03:00:25;;;;;;;;;;;;;;;;;;2089020;28;19958;-91
2022/12/07 03:01:25;;;;;;;;;;;;;;;;;;2080681;28;20348;-91
2022/12/07 03:02:31;;;;;;;;;;;;;;;;;;2080835;28;19949;-91
2022/12/07 03:03:34;;;;;;;;;;;;;;;;;;2080809;28;19936;-92
2022/12/07 03:04:53;;;;;;;;;;;;;;;;;;2080857;28;20388;-92
2022/12/07 03:06:08;;;;;;;;;;;;;;;;;;2089045;28;19913;-90
2022/12/07 03:07:18;;;;;;;;;;;;;;;;;;2080688;28;19917;-92
2022/12/07 03:08:27;;;;;;;;;;;;;;;;;;2082156;28;19990;-93
2022/12/07 03:09:30;;;;;;;;;;;;;;;;;;2089780;28;19912;-92
2022/12/07 03:10:46;;;;;;;;;;;;;;;;;;2088842;28;20011;-92
2022/12/07 03:11:49;;;;;;;;;;;;;;;;;;2089124;28;20402;-90
2022/12/07 03:12:56;;;;;;;;;;;;;;;;;;2089593;28;20374;-92
2022/12/07 03:14:09;;;;;;;;;;;;;;;;;;2088860;28;20295;-92
2022/12/07 03:15:15;;;;;;;;;;;;;;;;;;2080850;28;19913;-92
2022/12/07 03:16:24;;;;;;;;;;;;;;;;;;2081352;28;20476;-92
2022/12/07 03:17:27;;;;;;;;;;;;;;;;;;2080728;28;19913;-92
2022/12/07 03:18:29;;;;;;;;;;;;;;;;;;2080505;28;20003;-90
2022/12/07 03:19:31;;;;;;;;;;;;;;;;;;2089049;28;19913;-93
2022/12/07 03:20:33;;;;;;;;;;;;;;;;;;2080910;28;19913;-92
2022/12/07 03:21:36;;;;;;;;;;;;;;;;;;2072703;28;20607;-92
2022/12/07 03:22:38;;;;;;;;;;;;;;;;;;2081095;28;19913;-92
2022/12/07 03:23:39;;;;;;;;;;;;;;;;;;2080372;28;19936;-91
2022/12/07 03:24:47;;;;;;;;;;;;;;;;;;2072380;28;19967;-92
2022/12/07 03:25:52;;;;;;;;;;;;;;;;;;2073254;28;20404;-92
2022/12/07 03:26:54;;;;;;;;;;;;;;;;;;2080493;28;19952;-92
2022/12/07 03:28:00;;;;;;;;;;;;;;;;;;2080815;28;19913;-92
2022/12/07 03:29:02;;;;;;;;;;;;;;;;;;2089551;28;19920;-92
2022/12/07 03:30:03;;;;;;;;;;;;;;;;;;2089400;28;19927;-92
2022/12/07 03:31:10;;;;;;;;;;;;;;;;;;2080464;28;19932;-92
2022/12/07 03:32:14;;;;;;;;;;;;;;;;;;2073239;28;19963;-92
2022/12/07 03:33:20;;;;;;;;;;;;;;;;;;2072659;28;19981;-92
2022/12/07 03:34:26;;;;;;;;;;;;;;;;;;2081537;28;19931;-92
2022/12/07 03:35:44;;;;;;;;;;;;;;;;;;2088806;28;19924;-92
2022/12/07 03:36:50;;;;;;;;;;;;;;;;;;2080511;28;19913;-92
2022/12/07 03:37:53;;;;;;;;;;;;;;;;;;2081394;28;19913;-90
2022/12/07 03:39:09;;;;;;;;;;;;;;;;;;2089569;28;19913;-91
2022/12/07 03:40:15;;;;;;;;;;;;;;;;;;2089480;28;20392;-91
2022/12/07 03:41:22;;;;;;;;;;;;;;;;;;2080730;28;20060;-92
2022/12/07 03:42:22;;;;;;;;;;;;;;;;;;2081217;28;20394;-92
2022/12/07 03:43:22;;;;;;;;;;;;;;;;;;2097387;28;19932;-92
2022/12/07 03:44:23;;;;;;;;;;;;;;;;;;2090860;28;19972;-93
2022/12/07 03:45:27;;;;;;;;;;;;;;;;;;2091099;28;19909;-91
2022/12/07 03:46:43;;;;;;;;;;;;;;;;;;2089774;28;19909;-92
2022/12/07 03:48:05;;;;;;;;;;;;;;;;;;2085047;28;19924;-91
2022/12/07 03:49:18;;;;;;;;;;;;;;;;;;2090164;28;19913;-92
2022/12/07 03:50:25;;;;;;;;;;;;;;;;;;2081199;28;19917;-91
2022/12/07 03:51:30;;;;;;;;;;;;;;;;;;2073499;28;20313;-92
2022/12/07 03:52:39;;;;;;;;;;;;;;;;;;2081061;28;19939;-91
2022/12/07 03:53:47;;;;;;;;;;;;;;;;;;2080597;28;19921;-92
2022/12/07 03:54:58;;;;;;;;;;;;;;;;;;2073375;28;19917;-93
2022/12/07 03:55:58;;;;;;;;;;;;;;;;;;2072728;28;19917;-91
2022/12/07 03:57:00;;;;;;;;;;;;;;;;;;2080689;28;19913;-92
2022/12/07 03:58:05;;;;;;;;;;;;;;;;;;2080587;28;20084;-91
2022/12/07 03:59:05;;;;;;;;;;;;;;;;;;2072616;28;19956;-93
2022/12/07 04:00:07;;;;;;;;;;;;;;;;;;2071321;28;20332;-92
2022/12/07 04:01:07;;;;;;;;;;;;;;;;;;2080352;28;20063;-91
2022/12/07 04:02:10;;;;;;;;;;;;;;;;;;2080412;28;19916;-93
2022/12/07 04:03:11;;;;;;;;;;;;;;;;;;2080797;28;19913;-92
2022/12/07 04:04:11;;;;;;;;;;;;;;;;;;1739354;28;10000434;-92
2022/12/07 04:05:11;;;;;;;;;;;;;;;;;;2080907;28;19901;-91
2022/12/07 04:06:13;;;;;;;;;;;;;;;;;;2090725;28;19963;-92
2022/12/07 04:07:13;;;;;;;;;;;;;;;;;;2086892;28;19944;-91
2022/12/07 04:08:14;;;;;;;;;;;;;;;;;;2083237;28;19932;-92
2022/12/07 04:09:14;;;;;;;;;;;;;;;;;;2074604;28;19940;-91
2022/12/07 04:10:14;;;;;;;;;;;;;;;;;;2081876;28;19956;-91
2022/12/07 04:11:15;;;;;;;;;;;;;;;;;;2088906;28;19917;-92
2022/12/07 04:12:15;;;;;;;;;;;;;;;;;;2081325;28;20392;-92
2022/12/07 04:13:16;;;;;;;;;;;;;;;;;;2072767;28;19917;-92
2022/12/07 04:14:19;;;;;;;;;;;;;;;;;;2072563;28;19918;-92
2022/12/07 04:15:19;;;;;;;;;;;;;;;;;;2081164;28;19917;-91
2022/12/07 04:16:20;;;;;;;;;;;;;;;;;;2080876;28;20395;-92
2022/12/07 04:17:20;;;;;;;;;;;;;;;;;;2080714;28;19913;-92
2022/12/07 04:18:20;;;;;;;;;;;;;;;;;;2088763;28;19913;-91
2022/12/07 04:19:21;;;;;;;;;;;;;;;;;;2072093;28;19913;-92
2022/12/07 04:20:21;;;;;;;;;;;;;;;;;;2080161;28;20383;-92
2022/12/07 04:21:22;;;;;;;;;;;;;;;;;;2080254;28;20008;-92
2022/12/07 04:22:22;;;;;;;;;;;;;;;;;;2080361;28;19917;-91
2022/12/07 04:23:22;;;;;;;;;;;;;;;;;;2080266;28;20004;-92
2022/12/07 04:24:23;;;;;;;;;;;;;;;;;;2080361;28;19913;-92
2022/12/07 04:25:23;;;;;;;;;;;;;;;;;;2079950;28;19913;-91
2022/12/07 04:26:23;;;;;;;;;;;;;;;;;;2071898;28;19913;-92
2022/12/07 04:27:24;;;;;;;;;;;;;;;;;;2081495;28;19913;-93
2022/12/07 04:28:29;;;;;;;;;;;;;;;;;;2089829;28;19917;-91
2022/12/07 04:29:29;;;;;;;;;;;;;;;;;;2083014;28;19913;-92
2022/12/07 04:30:30;;;;;;;;;;;;;;;;;;2080256;28;20391;-92
2022/12/07 04:31:30;;;;;;;;;;;;;;;;;;2072131;28;19924;-93
2022/12/07 04:32:30;;;;;;;;;;;;;;;;;;2080334;28;19924;-92
2022/12/07 04:33:31;;;;;;;;;;;;;;;;;;2072149;28;19913;-91
2022/12/07 04:34:31;;;;;;;;;;;;;;;;;;2079965;28;20392;-91
2022/12/07 04:35:31;;;;;;;;;;;;;;;;;;2072816;28;19914;-91
2022/12/07 04:36:32;;;;;;;;;;;;;;;;;;2072061;28;19921;-91
2022/12/07 04:37:32;;;;;;;;;;;;;;;;;;2080429;28;20364;-91
2022/12/07 04:38:32;;;;;;;;;;;;;;;;;;2092581;28;20003;-92
2022/12/07 04:39:33;;;;;;;;;;;;;;;;;;2085785;28;19921;-91
2022/12/07 04:40:34;;;;;;;;;;;;;;;;;;2077526;28;19932;-91
2022/12/07 04:41:34;;;;;;;;;;;;;;;;;;2077606;28;20193;-90
2022/12/07 04:42:34;;;;;;;;;;;;;;;;;;2080077;28;19913;-92
2022/12/07 04:43:35;;;;;;;;;;;;;;;;;;2089456;28;19967;-89
2022/12/07 04:44:35;;;;;;;;;;;;;;;;;;2090299;28;19977;-93
2022/12/07 04:45:35;;;;;;;;;;;;;;;;;;2090355;28;19917;-90
2022/12/07 04:46:36;;;;;;;;;;;;;;;;;;2078311;28;19944;-91
2022/12/07 04:47:36;;;;;;;;;;;;;;;;;;2080879;28;19913;-91
2022/12/07 04:48:36;;;;;;;;;;;;;;;;;;2072398;28;19913;-92
2022/12/07 04:49:37;;;;;;;;;;;;;;;;;;2072211;28;19913;-91
2022/12/07 04:50:38;;;;;;;;;;;;;;;;;;2080510;28;19936;-91
2022/12/07 04:51:38;;;;;;;;;;;;;;;;;;2089120;28;20333;-91
2022/12/07 04:52:38;;;;;;;;;;;;;;;;;;2080360;28;20016;-90
2022/12/07 04:53:39;;;;;;;;;;;;;;;;;;2072053;28;20377;-92
2022/12/07 04:54:39;;;;;;;;;;;;;;;;;;2080059;28;19920;-91
2022/12/07 04:55:39;;;;;;;;;;;;;;;;;;2072253;28;20344;-92
2022/12/07 04:56:40;;;;;;;;;;;;;;;;;;2080370;28;19924;-89
2022/12/07 04:57:40;;;;;;;;;;;;;;;;;;2079969;28;20396;-90
2022/12/07 04:58:41;;;;;;;;;;;;;;;;;;2080204;28;19924;-92
2022/12/07 04:59:41;;;;;;;;;;;;;;;;;;2080099;28;19913;-91
2022/12/07 05:00:41;;;;;;;;;;;;;;;;;;2072101;28;20250;-93
2022/12/07 05:01:41;;;;;;;;;;;;;;;;;;2080361;28;19924;-92
2022/12/07 05:02:42;;;;;;;;;;;;;;;;;;2072091;28;19919;-93
2022/12/07 05:03:42;;;;;;;;;;;;;;;;;;2080256;28;19913;-91
2022/12/07 05:04:42;;;;;;;;;;;;;;;;;;2088626;28;19913;-93
2022/12/07 05:05:43;;;;;;;;;;;;;;;;;;2088792;28;20378;-91
2022/12/07 05:06:43;;;;;;;;;;;;;;;;;;2089381;28;19920;-92
2022/12/07 05:07:44;;;;;;;;;;;;;;;;;;2080219;28;20344;-92
2022/12/07 05:08:44;;;;;;;;;;;;;;;;;;2072452;28;19941;-92
2022/12/07 05:09:44;;;;;;;;;;;;;;;;;;2080155;28;20467;-92
2022/12/07 05:10:45;;;;;;;;;;;;;;;;;;2080029;28;19961;-93
2022/12/07 05:11:45;;;;;;;;;;;;;;;;;;2073441;28;19967;-92
2022/12/07 05:12:45;;;;;;;;;;;;;;;;;;2081776;28;19920;-92
2022/12/07 05:13:46;;;;;;;;;;;;;;;;;;2073624;28;19964;-92
2022/12/07 05:14:46;;;;;;;;;;;;;;;;;;2073826;28;20004;-93
2022/12/07 05:15:47;;;;;;;;;;;;;;;;;;2073453;28;19913;-92
2022/12/07 05:16:49;;;;;;;;;;;;;;;;;;2081826;28;20385;-92
2022/12/07 05:17:49;;;;;;;;;;;;;;;;;;2081808;28;19924;-91
2022/12/07 05:18:50;;;;;;;;;;;;;;;;;;2073483;28;20308;-91
2022/12/07 05:19:50;;;;;;;;;;;;;;;;;;2081413;28;19951;-92
2022/12/07 05:20:51;;;;;;;;;;;;;;;;;;2081877;28;19956;-92
2022/12/07 05:21:51;;;;;;;;;;;;;;;;;;2073503;28;19913;-92
2022/12/07 05:22:51;;;;;;;;;;;;;;;;;;2073902;28;19920;-92
2022/12/07 05:23:52;;;;;;;;;;;;;;;;;;2081767;28;19952;-92
2022/12/07 05:24:52;;;;;;;;;;;;;;;;;;2090701;28;20039;-91
2022/12/07 05:25:52;;;;;;;;;;;;;;;;;;2090645;28;19919;-93
2022/12/07 05:26:53;;;;;;;;;;;;;;;;;;2081547;28;20051;-92
2022/12/07 05:27:54;;;;;;;;;;;;;;;;;;2073496;28;20425;-92
2022/12/07 05:28:55;;;;;;;;;;;;;;;;;;2073619;28;20037;-92
2022/12/07 05:29:55;;;;;;;;;;;;;;;;;;2073967;28;20016;-93
2022/12/07 05:30:56;;;;;;;;;;;;;;;;;;2081808;28;20288;-92
2022/12/07 05:31:57;;;;;;;;;;;;;;;;;;2090634;28;19955;-93
2022/12/07 05:32:57;;;;;;;;;;;;;;;;;;2081555;28;20399;-92
2022/12/07 05:33:57;;;;;;;;;;;;;;;;;;2073558;28;20091;-91
2022/12/07 05:34:58;;;;;;;;;;;;;;;;;;2081469;28;20240;-91
2022/12/07 05:35:58;;;;;;;;;;;;;;;;;;2073650;28;20420;-92
2022/12/07 05:36:58;;;;;;;;;;;;;;;;;;2073179;28;19987;-93
2022/12/07 05:37:58;;;;;;;;;;;;;;;;;;2073570;28;19917;-93
2022/12/07 05:38:59;;;;;;;;;;;;;;;;;;2081746;28;19983;-92
2022/12/07 05:39:59;;;;;;;;;;;;;;;;;;2073584;28;20009;-92
2022/12/07 05:41:01;;;;;;;;;;;;;;;;;;2073295;28;19939;-92
2022/12/07 05:42:13;;;;;;;;;;;;;;;;;;2073541;28;19917;-91
2022/12/07 05:43:13;;;;;;;;;;;;;;;;;;2074910;28;19914;-92
2022/12/07 05:44:14;;;;;;;;;;;;;;;;;;2073310;28;19924;-92
2022/12/07 05:45:15;;;;;;;;;;;;;;;;;;2073488;28;20408;-92
2022/12/07 05:46:15;;;;;;;;;;;;;;;;;;2081592;28;20277;-91
2022/12/07 05:47:15;;;;;;;;;;;;;;;;;;2081643;28;20007;-91
2022/12/07 05:48:16;;;;;;;;;;;;;;;;;;2075859;28;19914;-91
2022/12/07 05:49:16;;;;;;;;;;;;;;;;;;2087089;28;19924;-91
2022/12/07 05:50:16;;;;;;;;;;;;;;;;;;2075812;28;20008;-92
2022/12/07 05:51:17;;;;;;;;;;;;;;;;;;2073139;28;19967;-91
2022/12/07 05:52:17;;;;;;;;;;;;;;;;;;2073582;28;19913;-91
2022/12/07 05:53:18;;;;;;;;;;;;;;;;;;2081439;28;20412;-91
2022/12/07 05:54:18;;;;;;;;;;;;;;;;;;2081698;28;19960;-91
2022/12/07 05:55:18;;;;;;;;;;;;;;;;;;2089695;28;19928;-91
2022/12/07 05:56:18;;;;;;;;;;;;;;;;;;2089823;28;19916;-91
2022/12/07 05:57:19;;;;;;;;;;;;;;;;;;2081527;28;20023;-90
2022/12/07 05:59:38;;;;;;;;;;;;;;;;;;2090682;28;19913;-90
2022/12/07 06:00:38;;;;;;;;;;;;;;;;;;2081536;28;19975;-93
2022/12/07 06:01:39;;;;;;;;;;;;;;;;;;2073350;28;20259;-92
2022/12/07 06:02:39;;;;;;;;;;;;;;;;;;2081509;28;19914;-92
2022/12/07 06:03:39;;;;;;;;;;;;;;;;;;2073491;28;20008;-93
2022/12/07 06:04:42;;;;;;;;;;;;;;;;;;2073391;28;20004;-92
2022/12/07 06:05:42;;;;;;;;;;;;;;;;;;2073981;28;20400;-93
2022/12/07 06:06:43;;;;;;;;;;;;;;;;;;2081631;28;19949;-93
2022/12/07 06:07:43;;;;;;;;;;;;;;;;;;2081767;28;19917;-93
2022/12/07 06:08:44;;;;;;;;;;;;;;;;;;2073442;28;19984;-93
2022/12/07 06:09:44;;;;;;;;;;;;;;;;;;2073062;28;20283;-92
2022/12/07 06:10:46;;;;;;;;;;;;;;;;;;1722332;28;10346930;-92
2022/12/07 06:13:07;;;;;;;;;;;;;;;;;;2090566;28;20003;-91
2022/12/07 06:14:07;;;;;;;;;;;;;;;;;;2090448;28;19956;-93
2022/12/07 06:15:08;;;;;;;;;;;;;;;;;;2091053;28;19919;-91
2022/12/07 06:16:08;;;;;;;;;;;;;;;;;;2081516;28;19914;-92
2022/12/07 06:17:09;;;;;;;;;;;;;;;;;;2073486;28;20025;-94
2022/12/07 06:18:09;;;;;;;;;;;;;;;;;;2074149;28;20059;-93
2022/12/07 06:19:09;;;;;;;;;;;;;;;;;;2073391;28;19960;-92
2022/12/07 06:20:10;;;;;;;;;;;;;;;;;;2082209;28;19982;-93
2022/12/07 06:21:10;;;;;;;;;;;;;;;;;;2081500;28;19944;-94
2022/12/07 06:22:11;;;;;;;;;;;;;;;;;;2073568;28;19968;-91
2022/12/07 06:23:11;;;;;;;;;;;;;;;;;;2081632;28;20453;-93
2022/12/07 06:24:12;;;;;;;;;;;;;;;;;;2081718;28;19960;-93
2022/12/07 06:25:12;;;;;;;;;;;;;;;;;;2074326;28;20392;-91
2022/12/07 06:26:13;;;;;;;;;;;;;;;;;;2081644;28;20001;-93
2022/12/07 06:27:13;;;;;;;;;;;;;;;;;;2078807;28;19922;-93
2022/12/07 06:28:13;;;;;;;;;;;;;;;;;;2092103;28;19949;-93
2022/12/07 06:29:14;;;;;;;;;;;;;;;;;;2083633;28;19934;-91
2022/12/07 06:30:14;;;;;;;;;;;;;;;;;;2081170;28;19937;-91
2022/12/07 06:31:15;;;;;;;;;;;;;;;;;;2075879;28;19971;-93
2022/12/07 06:32:15;;;;;;;;;;;;;;;;;;2082781;28;19921;-92
2022/12/07 06:33:15;;;;;;;;;;;;;;;;;;2082958;28;19913;-92
2022/12/07 06:34:17;;;;;;;;;;;;;;;;;;2090381;28;19920;-93
2022/12/07 06:35:17;;;;;;;;;;;;;;;;;;2082028;28;19913;-92
2022/12/07 06:36:17;;;;;;;;;;;;;;;;;;2074520;28;19960;-91
2022/12/07 06:37:18;;;;;;;;;;;;;;;;;;2081496;28;20324;-92
2022/12/07 06:38:18;;;;;;;;;;;;;;;;;;2081773;28;19917;-92
2022/12/07 06:39:19;;;;;;;;;;;;;;;;;;2089851;28;20429;-92
2022/12/07 06:40:19;;;;;;;;;;;;;;;;;;2081705;28;20008;-91
2022/12/07 06:41:20;;;;;;;;;;;;;;;;;;2073223;28;19968;-90
2022/12/07 06:42:21;;;;;;;;;;;;;;;;;;2081520;28;20375;-91
2022/12/07 06:43:21;;;;;;;;;;;;;;;;;;2081368;28;19913;-93
2022/12/07 06:44:21;;;;;;;;;;;;;;;;;;2073211;28;19914;-93
2022/12/07 06:45:22;;;;;;;;;;;;;;;;;;2081051;28;20009;-93
2022/12/07 06:46:22;;;;;;;;;;;;;;;;;;2073662;28;19992;-91
2022/12/07 06:47:23;;;;;;;;;;;;;;;;;;2075834;28;20320;-91
2022/12/07 06:48:23;;;;;;;;;;;;;;;;;;2080124;28;19956;-92
2022/12/07 06:49:23;;;;;;;;;;;;;;;;;;2086817;28;19943;-92
2022/12/07 06:50:24;;;;;;;;;;;;;;;;;;2091581;28;19908;-93
2022/12/07 06:51:24;;;;;;;;;;;;;;;;;;2097518;28;20781;-93
2022/12/07 06:52:24;;;;;;;;;;;;;;;;;;2087517;28;19920;-92
2022/12/07 06:53:24;;;;;;;;;;;;;;;;;;2091002;28;20243;-93
2022/12/07 06:54:25;;;;;;;;;;;;;;;;;;2081447;28;19917;-93
2022/12/07 06:55:26;;;;;;;;;;;;;;;;;;2081604;28;19913;-93
2022/12/07 06:56:26;;;;;;;;;;;;;;;;;;2085611;28;19914;-92
2022/12/07 06:57:26;;;;;;;;;;;;;;;;;;2081373;28;19921;-92
2022/12/07 06:58:27;;;;;;;;;;;;;;;;;;2081600;28;19936;-91
2022/12/07 06:59:27;;;;;;;;;;;;;;;;;;2073291;28;19957;-91
2022/12/07 07:00:28;;;;;;;;;;;;;;;;;;2073135;28;19913;-91
2022/12/07 07:01:28;;;;;;;;;;;;;;;;;;2081561;28;19921;-93
2022/12/07 07:02:29;;;;;;;;;;;;;;;;;;2073179;28;19956;-92
2022/12/07 07:03:29;;;;;;;;;;;;;;;;;;2073004;28;19968;-93
2022/12/07 07:04:29;;;;;;;;;;;;;;;;;;2089684;28;20362;-93
2022/12/07 07:05:30;;;;;;;;;;;;;;;;;;2073238;28;19913;-93
2022/12/07 07:06:30;;;;;;;;;;;;;;;;;;2064830;28;19921;-92
2022/12/07 07:07:30;;;;;;;;;;;;;;;;;;2081044;28;19925;-92